Time;durP1;ratioP1;P1;durP2;ratioP2;P2;SDS_P1;SDS_P2;PMS_P1;PMS_P2;Temp;Humidity;BMP_temperature;BMP_pressure;BME280_temperature;BME280_humidity;BME280_pressure;Samples;Min_cycle;Max_cycle;Signal;HPM_P1;HPM_P2
2022/12/23 00:00:07;;;;;;;4.87;2.27;;;12.60;99.90;;;;;;4970848;28;20630;-78
2022/12/23 00:02:36;;;;;;;4.03;2.17;;;12.50;99.90;;;;;;4970321;28;20178;-78
2022/12/23 00:05:03;;;;;;;5.47;2.00;;;12.50;99.90;;;;;;4972645;28;20202;-79
2022/12/23 00:07:32;;;;;;;9.52;3.17;;;12.40;99.90;;;;;;4954666;28;20583;-78
2022/12/23 00:09:58;;;;;;;5.07;2.17;;;12.50;99.90;;;;;;4972168;28;20168;-78
2022/12/23 00:15:09;;;;;;;6.75;2.65;;;12.50;99.90;;;;;;4970639;28;20607;-77
2022/12/23 00:17:43;;;;;;;7.03;2.92;;;12.50;99.90;;;;;;4970554;28;20227;-76
2022/12/23 00:20:12;;;;;;;7.37;2.70;;;12.60;99.90;;;;;;4972008;28;20202;-77
2022/12/23 00:25:41;;;;;;;5.43;2.10;;;12.60;99.90;;;;;;4986517;28;20602;-76
2022/12/23 00:28:11;;;;;;;5.17;2.30;;;12.60;99.90;;;;;;4986321;28;20704;-77
2022/12/23 00:30:44;;;;;;;9.20;3.10;;;12.60;99.90;;;;;;4971495;28;20575;-77
2022/12/23 00:33:10;;;;;;;4.93;2.57;;;12.70;99.90;;;;;;4985855;28;20677;-77
2022/12/23 00:35:35;;;;;;;4.33;2.10;;;12.70;99.90;;;;;;4954414;28;20650;-78
2022/12/23 00:38:01;;;;;;;4.37;2.10;;;12.70;99.90;;;;;;4971674;28;20239;-78
2022/12/23 00:43:11;;;;;;;4.87;2.60;;;12.70;99.90;;;;;;4970946;28;20174;-78
2022/12/23 00:45:37;;;;;;;4.10;2.13;;;12.80;99.90;;;;;;4970110;28;21214;-78
2022/12/23 00:50:51;;;;;;;3.67;1.95;;;12.80;99.90;;;;;;4986163;28;20647;-78
2022/12/23 00:53:17;;;;;;;4.93;2.67;;;12.80;99.90;;;;;;4970647;28;20262;-78
2022/12/23 00:55:45;;;;;;;7.87;2.50;;;12.70;99.90;;;;;;4953713;28;20686;-78
2022/12/23 00:58:11;;;;;;;6.73;2.30;;;12.70;99.90;;;;;;4986302;28;20245;-78
2022/12/23 01:06:05;;;;;;;2.63;1.23;;;12.70;99.90;;;;;;4986328;28;21127;-78
2022/12/23 01:08:31;;;;;;;3.40;2.10;;;12.80;99.90;;;;;;4970297;28;20171;-78
2022/12/23 01:11:00;;;;;;;7.03;4.10;;;12.80;99.90;;;;;;4970011;28;20226;-77
2022/12/23 01:13:26;;;;;;;3.50;1.83;;;12.70;99.90;;;;;;4985090;28;20214;-77
2022/12/23 01:15:52;;;;;;;3.13;1.67;;;12.70;99.90;;;;;;4969913;28;20611;-77
2022/12/23 01:18:18;;;;;;;4.17;1.20;;;12.70;99.90;;;;;;4969733;28;20186;-77
2022/12/23 01:20:43;;;;;;;2.13;1.33;;;12.70;99.90;;;;;;4971118;28;20168;-77
2022/12/23 01:23:09;;;;;;;2.07;0.80;;;12.70;99.90;;;;;;4952986;28;20184;-77
2022/12/23 01:25:35;;;;;;;1.80;0.97;;;12.80;99.90;;;;;;4971267;28;20199;-78
2022/12/23 01:28:00;;;;;;;2.03;0.70;;;12.80;99.90;;;;;;4969183;28;20175;-77
2022/12/23 01:30:26;;;;;;;2.33;0.80;;;12.80;99.90;;;;;;4985752;28;20183;-76
2022/12/23 01:32:52;;;;;;;2.67;0.60;;;12.70;99.90;;;;;;4968568;28;20583;-78
2022/12/23 01:35:18;;;;;;;1.50;0.63;;;12.70;99.90;;;;;;4969425;28;20235;-76
2022/12/23 01:37:43;;;;;;;1.90;0.70;;;12.80;99.90;;;;;;4970736;28;20202;-76
2022/12/23 01:40:09;;;;;;;2.33;0.80;;;12.70;99.90;;;;;;4970446;28;20199;-77
2022/12/23 01:42:45;;;;;;;2.10;0.80;;;12.70;99.90;;;;;;4970021;28;20180;-77
2022/12/23 01:45:28;;;;;;;1.83;0.73;;;12.70;99.90;;;;;;4969144;28;20606;-77
2022/12/23 01:48:08;;;;;;;3.40;1.00;;;12.70;99.90;;;;;;4953356;28;20283;-77
2022/12/23 01:50:34;;;;;;;2.25;0.70;;;12.60;99.90;;;;;;4971285;28;20388;-78
2022/12/23 01:53:18;;;;;;;2.53;0.70;;;12.60;99.90;;;;;;5014912;23;20321;-77
2022/12/23 01:55:54;;;;;;;2.33;0.90;;;12.60;99.90;;;;;;5004619;28;20170;-76
2022/12/23 01:58:24;;;;;;;1.83;0.80;;;12.50;99.90;;;;;;5014816;28;20168;-77
2022/12/23 02:03:42;;;;;;;2.28;0.95;;;12.50;99.90;;;;;;4999277;28;20191;-77
2022/12/23 02:09:17;;;;;;;3.80;0.80;;;12.50;99.90;;;;;;4989335;28;20179;-76
2022/12/23 02:12:15;;;;;;;3.08;0.80;;;12.60;99.90;;;;;;4988283;28;20203;-77
2022/12/23 02:18:06;;;;;;;1.70;0.75;;;12.60;99.90;;;;;;4988782;28;20180;-77
2022/12/23 02:20:50;;;;;;;1.92;0.80;;;12.60;99.90;;;;;;4989126;28;20215;-77
2022/12/23 02:23:28;;;;;;;1.90;1.00;;;12.70;99.90;;;;;;4987685;28;20195;-77
2022/12/23 02:26:23;;;;;;;2.35;1.13;;;12.70;99.90;;;;;;4987333;28;20531;-77
2022/12/23 02:29:13;;;;;;;3.20;1.00;;;12.70;99.90;;;;;;4988544;28;20183;-77
2022/12/23 02:31:56;;;;;;;1.70;0.90;;;12.70;99.90;;;;;;4988556;28;20717;-77
2022/12/23 02:34:36;;;;;;;2.53;1.10;;;12.70;99.90;;;;;;4988456;28;20218;-77
2022/12/23 02:37:36;;;;;;;3.88;1.20;;;12.80;99.90;;;;;;4989353;28;20198;-77
2022/12/23 02:40:30;;;;;;;3.10;1.20;;;12.80;99.90;;;;;;4972168;28;20255;-77
2022/12/23 02:43:19;;;;;;;5.40;1.53;;;12.80;99.90;;;;;;4988120;28;20642;-77
2022/12/23 02:45:53;;;;;;;4.83;1.40;;;12.80;99.90;;;;;;4988350;28;20638;-76
2022/12/23 02:48:43;;;;;;;2.80;1.53;;;12.80;99.90;;;;;;5001813;28;20677;-76
2022/12/23 02:51:12;;;;;;;6.07;1.65;;;12.90;99.90;;;;;;4990947;28;20625;-76
2022/12/23 02:53:49;;;;;;;3.10;1.27;;;12.90;99.90;;;;;;4992788;28;20179;-76
2022/12/23 02:56:18;;;;;;;2.90;1.60;;;12.90;99.90;;;;;;5006960;28;20525;-76
2022/12/23 02:58:56;;;;;;;2.72;1.30;;;12.90;99.90;;;;;;4975265;28;20729;-77
2022/12/23 03:01:25;;;;;;;5.53;2.23;;;12.90;99.90;;;;;;4991750;28;20858;-77
2022/12/23 03:03:50;;;;;;;4.30;2.05;;;13.00;99.90;;;;;;4991315;28;21120;-77
2022/12/23 03:06:25;;;;;;;3.83;1.53;;;12.90;99.90;;;;;;5007059;28;20175;-76
2022/12/23 03:08:54;;;;;;;5.80;1.42;;;13.00;99.90;;;;;;4992294;28;20179;-77
2022/12/23 03:11:20;;;;;;;3.55;1.27;;;13.00;99.90;;;;;;4974315;28;20195;-77
2022/12/23 03:14:18;;;;;;;2.03;1.17;;;13.00;99.90;;;;;;4975173;28;20547;-76
2022/12/23 03:16:53;;;;;;;5.63;1.63;;;13.00;99.90;;;;;;4967626;28;20730;-77
2022/12/23 03:19:38;;;;;;;4.50;1.50;;;13.00;99.90;;;;;;4974907;28;20629;-77
2022/12/23 03:22:32;;;;;;;4.73;2.00;;;13.00;99.90;;;;;;4974375;28;20622;-77
2022/12/23 03:25:28;;;;;;;4.50;1.60;;;13.00;99.90;;;;;;4974239;28;20574;-77
2022/12/23 03:28:16;;;;;;;5.60;1.50;;;13.10;99.90;;;;;;4992038;28;20590;-76
2022/12/23 03:30:46;;;;;;;3.47;1.80;;;13.10;99.90;;;;;;4974742;28;21032;-76
2022/12/23 03:33:24;;;;;;;3.90;1.20;;;13.10;99.90;;;;;;4974044;28;20293;-77
2022/12/23 03:35:55;;;;;;;3.80;1.67;;;13.10;99.90;;;;;;4990384;28;20177;-77
2022/12/23 03:38:22;;;;;;;3.20;2.10;;;13.10;99.90;;;;;;4974146;28;20593;-76
2022/12/23 03:40:53;;;;;;;4.77;1.30;;;13.10;99.90;;;;;;4974414;28;20713;-77
2022/12/23 03:43:27;;;;;;;3.60;1.40;;;13.10;99.90;;;;;;4973983;28;20614;-76
2022/12/23 03:45:57;;;;;;;4.90;1.20;;;13.10;99.90;;;;;;4990106;28;20639;-76
2022/12/23 03:48:31;;;;;;;8.60;1.20;;;13.10;99.90;;;;;;4974137;28;20959;-76
2022/12/23 03:51:02;;;;;;;4.70;1.10;;;13.10;99.90;;;;;;4992750;28;20681;-76
2022/12/23 03:53:37;;;;;;;2.70;0.90;;;13.10;99.90;;;;;;4991293;28;20574;-77
2022/12/23 03:56:07;;;;;;;3.23;1.10;;;13.10;99.90;;;;;;4957726;28;20574;-77
2022/12/23 03:58:41;;;;;;;3.73;1.20;;;13.10;99.90;;;;;;4942212;28;20582;-77
2022/12/23 04:01:21;;;;;;;3.92;1.48;;;13.10;99.90;;;;;;4973742;28;20594;-77
2022/12/23 04:03:56;;;;;;;2.53;1.03;;;13.10;99.90;;;;;;4974203;28;20190;-77
2022/12/23 04:06:25;;;;;;;4.53;0.90;;;13.10;99.90;;;;;;4973380;28;20570;-77
2022/12/23 04:08:52;;;;;;;1.63;0.80;;;13.10;99.90;;;;;;4991224;28;20579;-76
2022/12/23 04:11:18;;;;;;;4.17;1.00;;;13.10;99.90;;;;;;4957306;28;20202;-76
2022/12/23 04:13:47;;;;;;;4.50;1.00;;;13.10;99.90;;;;;;4973420;28;20617;-77
2022/12/23 04:16:13;;;;;;;4.60;1.30;;;13.10;99.90;;;;;;4990710;28;20582;-77
2022/12/23 04:18:38;;;;;;;4.23;1.13;;;13.10;99.90;;;;;;4973699;28;22566;-77
2022/12/23 04:21:04;;;;;;;1.93;0.80;;;13.10;99.90;;;;;;4990512;28;20574;-76
2022/12/23 04:23:30;;;;;;;2.47;0.70;;;13.10;99.90;;;;;;4973746;28;20167;-77
2022/12/23 04:25:56;;;;;;;4.80;0.90;;;13.10;99.90;;;;;;4989359;28;20167;-77
2022/12/23 04:28:21;;;;;;;3.20;0.93;;;13.10;99.90;;;;;;4990152;28;20265;-77
2022/12/23 04:30:47;;;;;;;1.70;0.80;;;13.10;99.90;;;;;;4991201;28;20168;-76
2022/12/23 04:33:13;;;;;;;2.80;0.80;;;13.00;99.90;;;;;;4990391;28;20670;-77
2022/12/23 04:35:38;;;;;;;2.40;0.97;;;13.00;99.90;;;;;;4956854;28;20890;-76
2022/12/23 04:38:04;;;;;;;2.70;0.70;;;12.90;99.90;;;;;;4990680;28;20657;-76
2022/12/23 04:40:30;;;;;;;2.90;0.90;;;12.80;99.90;;;;;;4973435;28;20242;-76
2022/12/23 04:42:56;;;;;;;2.37;1.00;;;12.80;99.90;;;;;;4990217;28;20606;-76
2022/12/23 04:45:21;;;;;;;3.60;1.10;;;12.80;99.90;;;;;;4972943;28;20187;-76
2022/12/23 04:47:47;;;;;;;1.67;0.73;;;12.70;99.90;;;;;;5005504;28;20171;-76
2022/12/23 04:50:14;;;;;;;2.90;0.80;;;12.70;99.90;;;;;;4990575;28;20186;-77
2022/12/23 04:52:40;;;;;;;2.50;0.90;;;12.70;99.90;;;;;;4956544;28;20221;-76
2022/12/23 04:55:06;;;;;;;4.18;0.80;;;12.70;99.90;;;;;;4990145;28;20167;-77
2022/12/23 04:57:32;;;;;;;4.20;0.90;;;12.70;99.90;;;;;;4989219;28;20175;-77
2022/12/23 04:59:58;;;;;;;3.40;1.00;;;12.70;99.90;;;;;;4972736;28;20206;-77
2022/12/23 05:02:23;;;;;;;6.70;1.00;;;12.70;99.90;;;;;;4989976;28;20199;-76
2022/12/23 05:04:49;;;;;;;1.40;0.60;;;12.80;99.90;;;;;;4988549;28;20175;-76
2022/12/23 05:07:15;;;;;;;2.53;0.83;;;12.80;99.90;;;;;;4990563;28;20627;-76
2022/12/23 05:09:40;;;;;;;2.47;0.90;;;12.80;99.90;;;;;;4956636;28;20603;-77
2022/12/23 05:12:06;;;;;;;3.30;0.80;;;12.80;99.90;;;;;;4990135;28;20211;-76
2022/12/23 05:14:32;;;;;;;2.07;0.80;;;12.80;99.90;;;;;;4972005;28;20638;-75
2022/12/23 05:16:57;;;;;;;2.90;0.90;;;12.80;99.90;;;;;;4990540;28;20179;-76
2022/12/23 05:19:23;;;;;;;3.23;1.00;;;12.80;99.90;;;;;;4972466;28;20215;-76
2022/12/23 05:21:49;;;;;;;2.60;0.90;;;12.80;99.90;;;;;;5004615;28;20843;-75
2022/12/23 05:24:15;;;;;;;3.00;0.90;;;12.80;99.90;;;;;;4953231;28;20576;-76
2022/12/23 05:26:40;;;;;;;1.87;0.70;;;12.80;99.90;;;;;;4972615;28;20257;-75
2022/12/23 05:29:06;;;;;;;4.17;0.87;;;12.80;99.90;;;;;;4988959;28;20178;-75
2022/12/23 05:31:32;;;;;;;2.70;0.90;;;12.90;99.90;;;;;;4989003;28;20201;-75
2022/12/23 05:33:57;;;;;;;4.10;0.90;;;12.90;99.90;;;;;;4988724;28;20179;-75
2022/12/23 05:36:23;;;;;;;2.47;0.90;;;12.90;99.90;;;;;;5004250;28;20179;-75
2022/12/23 05:38:49;;;;;;;3.83;1.03;;;12.90;99.90;;;;;;5001580;28;20881;-76
2022/12/23 05:41:15;;;;;;;6.53;1.20;;;12.90;99.90;;;;;;4998251;28;20641;-75
2022/12/23 05:43:41;;;;;;;3.38;0.90;;;12.90;99.90;;;;;;4972047;28;20194;-75
2022/12/23 05:46:07;;;;;;;2.47;0.87;;;12.90;99.90;;;;;;4972068;28;20645;-76
2022/12/23 05:48:32;;;;;;;3.10;0.97;;;12.90;99.90;;;;;;4987567;28;20669;-76
2022/12/23 05:50:58;;;;;;;2.53;1.27;;;12.90;99.90;;;;;;4988614;28;20233;-76
2022/12/23 05:53:24;;;;;;;3.30;1.33;;;12.90;99.90;;;;;;5004377;28;20546;-76
2022/12/23 05:55:50;;;;;;;1.77;0.80;;;12.90;99.90;;;;;;4971884;28;20171;-76
2022/12/23 05:58:16;;;;;;;2.30;0.80;;;12.90;99.90;;;;;;4956050;28;20225;-76
2022/12/23 06:00:42;;;;;;;5.30;1.00;;;12.90;99.90;;;;;;4989820;28;20198;-75
2022/12/23 06:03:08;;;;;;;2.95;0.90;;;12.90;99.90;;;;;;4955073;28;20614;-75
2022/12/23 06:05:36;;;;;;;2.43;0.80;;;12.90;99.90;;;;;;5004090;28;20211;-75
2022/12/23 06:08:02;;;;;;;2.80;1.00;;;12.90;99.90;;;;;;4956195;28;20197;-75
2022/12/23 06:10:28;;;;;;;2.25;1.33;;;12.90;99.90;;;;;;4972559;28;20582;-76
2022/12/23 06:12:54;;;;;;;2.53;1.17;;;12.90;99.90;;;;;;4971953;28;20294;-76
2022/12/23 06:15:20;;;;;;;2.80;1.00;;;12.90;99.90;;;;;;4988968;28;20260;-75
2022/12/23 06:17:46;;;;;;;2.70;1.00;;;13.00;99.90;;;;;;5004092;28;21199;-76
2022/12/23 06:20:12;;;;;;;2.10;1.00;;;13.00;99.90;;;;;;4971475;28;20205;-76
2022/12/23 06:22:38;;;;;;;7.23;1.67;;;13.00;99.90;;;;;;4987544;28;20202;-74
2022/12/23 06:25:04;;;;;;;5.07;1.13;;;13.00;99.90;;;;;;4970971;28;20583;-75
2022/12/23 06:27:30;;;;;;;2.40;1.10;;;13.10;99.90;;;;;;4989320;28;20210;-75
2022/12/23 06:29:56;;;;;;;2.30;0.90;;;13.10;99.90;;;;;;4988706;28;20618;-76
2022/12/23 06:32:21;;;;;;;3.90;1.07;;;13.10;99.90;;;;;;4970128;28;20203;-76
2022/12/23 06:34:52;;;;;;;2.20;0.87;;;13.10;99.90;;;;;;4995434;28;20183;-78
2022/12/23 06:37:19;;;;;;;3.00;1.10;;;13.20;99.90;;;;;;4996441;28;20270;-76
2022/12/23 06:39:45;;;;;;;3.67;1.30;;;13.20;99.90;;;;;;4991202;28;20985;-76
2022/12/23 06:42:10;;;;;;;4.00;1.93;;;13.20;99.90;;;;;;5007449;28;20281;-76
2022/12/23 06:44:36;;;;;;;5.87;0.93;;;13.20;99.90;;;;;;4991052;28;20273;-76
2022/12/23 06:47:02;;;;;;;3.10;0.97;;;13.20;99.90;;;;;;4992645;28;20182;-76
2022/12/23 06:49:27;;;;;;;3.50;1.30;;;13.20;99.90;;;;;;4992927;28;20642;-76
2022/12/23 06:51:53;;;;;;;2.10;1.20;;;13.20;99.90;;;;;;4992062;28;20232;-74
2022/12/23 06:54:19;;;;;;;3.77;0.90;;;13.20;99.90;;;;;;4992563;28;20669;-75
2022/12/23 06:56:44;;;;;;;3.77;1.00;;;13.20;99.90;;;;;;5007289;28;20206;-76
2022/12/23 06:59:10;;;;;;;3.30;1.10;;;13.20;99.90;;;;;;4974755;28;20213;-75
2022/12/23 07:01:36;;;;;;;2.93;0.90;;;13.20;99.90;;;;;;5006734;28;20227;-75
2022/12/23 07:04:02;;;;;;;5.63;1.23;;;13.20;99.90;;;;;;4998740;28;20233;-75
2022/12/23 07:06:28;;;;;;;7.43;2.57;;;13.20;99.90;;;;;;4971487;28;20623;-75
2022/12/23 07:08:54;;;;;;;5.00;1.83;;;13.20;99.90;;;;;;4939655;28;20644;-75
2022/12/23 07:11:19;;;;;;;6.10;1.10;;;13.10;99.90;;;;;;4971509;28;20714;-75
2022/12/23 07:13:45;;;;;;;5.17;1.27;;;13.10;99.90;;;;;;4971380;28;20171;-75
2022/12/23 07:16:12;;;;;;;2.90;1.15;;;13.10;99.90;;;;;;4972811;28;20191;-76
2022/12/23 07:18:37;;;;;;;4.73;1.33;;;13.10;99.90;;;;;;4955408;28;20211;-76
2022/12/23 07:21:03;;;;;;;6.43;1.77;;;13.10;99.90;;;;;;4939290;28;20590;-75
2022/12/23 07:23:29;;;;;;;3.43;1.40;;;13.10;99.90;;;;;;4971650;28;20215;-75
2022/12/23 07:25:55;;;;;;;5.27;1.80;;;13.00;99.90;;;;;;4972253;28;20575;-76
2022/12/23 07:28:21;;;;;;;8.70;1.80;;;13.00;99.90;;;;;;4984785;28;21180;-76
2022/12/23 07:30:47;;;;;;;3.50;1.30;;;13.00;99.90;;;;;;5006581;28;20179;-75
2022/12/23 07:33:13;;;;;;;2.33;1.20;;;13.00;99.90;;;;;;4989280;28;20632;-76
2022/12/23 07:35:41;;;;;;;4.47;1.73;;;13.00;99.90;;;;;;4990016;28;20171;-76
2022/12/23 07:38:07;;;;;;;4.83;1.80;;;13.00;99.90;;;;;;4990905;28;20175;-76
2022/12/23 07:40:33;;;;;;;2.40;1.47;;;13.00;99.90;;;;;;4991601;28;20637;-76
2022/12/23 07:42:59;;;;;;;3.43;1.70;;;13.00;99.90;;;;;;4989866;28;20622;-76
2022/12/23 07:45:26;;;;;;;2.90;1.50;;;12.90;99.90;;;;;;4973774;28;21161;-75
2022/12/23 07:47:53;;;;;;;4.70;2.20;;;12.90;99.90;;;;;;4992436;28;20578;-75
2022/12/23 07:50:19;;;;;;;2.30;1.73;;;12.90;99.90;;;;;;4991053;28;20591;-76
2022/12/23 07:52:45;;;;;;;8.20;2.17;;;12.90;99.90;;;;;;4957543;28;20583;-75
2022/12/23 07:55:10;;;;;;;3.30;2.50;;;12.90;99.90;;;;;;4991261;28;20587;-75
2022/12/23 07:57:37;;;;;;;3.83;2.07;;;12.90;99.90;;;;;;4990074;28;20686;-75
2022/12/23 08:00:13;;;;;;;4.68;2.20;;;12.90;99.90;;;;;;4991630;28;20238;-75
2022/12/23 08:02:39;;;;;;;3.58;2.15;;;12.90;99.90;;;;;;5006020;28;20195;-75
2022/12/23 08:05:06;;;;;;;3.50;2.10;;;12.90;99.90;;;;;;4991082;28;20543;-75
2022/12/23 08:07:31;;;;;;;8.65;2.25;;;13.00;99.90;;;;;;4990213;28;20586;-76
2022/12/23 08:09:57;;;;;;;5.50;1.83;;;13.00;99.90;;;;;;4974091;28;20182;-75
2022/12/23 08:12:24;;;;;;;3.00;1.93;;;13.00;99.90;;;;;;4973230;28;20561;-75
2022/12/23 08:14:51;;;;;;;3.60;2.40;;;13.00;99.90;;;;;;4973218;28;20740;-75
2022/12/23 08:17:19;;;;;;;5.73;2.10;;;13.00;99.90;;;;;;4991314;28;20210;-75
2022/12/23 08:19:48;;;;;;;3.80;2.07;;;13.00;99.90;;;;;;4972888;28;20752;-76
2022/12/23 08:22:14;;;;;;;7.23;2.23;;;13.00;99.90;;;;;;4991690;28;20618;-75
2022/12/23 08:24:40;;;;;;;2.50;1.70;;;13.10;99.90;;;;;;4999520;28;20580;-77
2022/12/23 08:27:06;;;;;;;3.60;1.93;;;13.10;99.90;;;;;;4954072;28;20627;-76
2022/12/23 08:29:32;;;;;;;3.63;2.13;;;13.10;99.90;;;;;;4953830;28;20657;-76
2022/12/23 08:31:57;;;;;;;4.00;1.90;;;13.10;99.90;;;;;;4971307;28;20203;-76
2022/12/23 08:34:24;;;;;;;3.87;1.70;;;13.20;99.90;;;;;;4986385;28;20207;-76
2022/12/23 08:36:49;;;;;;;4.35;1.70;;;13.20;99.90;;;;;;4953806;28;20176;-76
2022/12/23 08:39:15;;;;;;;5.50;1.83;;;13.20;99.90;;;;;;4971407;28;20666;-76
2022/12/23 08:41:44;;;;;;;2.40;1.40;;;13.20;99.90;;;;;;4953681;28;20241;-76
2022/12/23 08:44:10;;;;;;;4.50;2.00;;;13.20;99.90;;;;;;4970283;28;20202;-77
2022/12/23 08:46:36;;;;;;;3.25;1.40;;;13.30;99.90;;;;;;4970768;28;20645;-76
2022/12/23 08:49:03;;;;;;;2.90;1.67;;;13.30;99.90;;;;;;4970132;28;20176;-76
2022/12/23 08:51:29;;;;;;;3.33;1.60;;;13.20;99.90;;;;;;4953341;28;20627;-76
2022/12/23 08:53:57;;;;;;;3.10;1.47;;;13.20;99.90;;;;;;4971332;28;21358;-76
2022/12/23 08:56:24;;;;;;;1.93;1.43;;;13.20;99.90;;;;;;4953190;28;20183;-76
2022/12/23 08:58:52;;;;;;;4.70;1.80;;;13.30;99.90;;;;;;4953858;28;20665;-77
2022/12/23 09:01:20;;;;;;;3.50;1.33;;;13.30;99.90;;;;;;4968922;28;20657;-73
2022/12/23 09:03:46;;;;;;;4.03;1.60;;;13.30;99.90;;;;;;4969765;28;20579;-73
2022/12/23 09:06:16;;;;;;;1.83;1.30;;;13.30;99.90;;;;;;4968963;28;21181;-73
2022/12/23 09:08:42;;;;;;;2.50;1.63;;;13.30;99.90;;;;;;4971108;28;20579;-72
2022/12/23 09:11:10;;;;;;;2.60;1.40;;;13.30;99.90;;;;;;4952792;28;21169;-73
2022/12/23 09:13:35;;;;;;;2.88;1.30;;;13.30;99.90;;;;;;4953915;28;20191;-73
2022/12/23 09:16:03;;;;;;;1.80;1.40;;;13.40;99.90;;;;;;4985351;28;20168;-73
2022/12/23 09:18:28;;;;;;;2.23;1.20;;;13.40;99.90;;;;;;4962064;28;20601;-73
2022/12/23 09:21:05;;;;;;;1.60;1.30;;;13.40;99.90;;;;;;4990022;28;20622;-73
2022/12/23 09:23:32;;;;;;;1.87;1.00;;;13.40;99.90;;;;;;4998249;28;20741;-75
2022/12/23 09:25:58;;;;;;;4.03;1.40;;;13.40;99.90;;;;;;4987619;28;20594;-75
2022/12/23 09:28:25;;;;;;;6.13;1.17;;;13.30;99.90;;;;;;4988030;28;20602;-74
2022/12/23 09:30:51;;;;;;;3.87;1.57;;;13.30;99.90;;;;;;5003318;28;20595;-75
2022/12/23 09:33:17;;;;;;;2.57;1.13;;;13.30;99.90;;;;;;4984469;28;20964;-75
2022/12/23 09:35:43;;;;;;;2.67;1.37;;;13.30;99.90;;;;;;5006464;28;20590;-75
2022/12/23 09:38:09;;;;;;;1.60;1.00;;;13.30;99.90;;;;;;4990113;28;20908;-75
2022/12/23 09:40:39;;;;;;;2.70;1.00;;;13.30;99.90;;;;;;4990438;28;20222;-74
2022/12/23 09:43:28;;;;;;;1.80;1.10;;;13.30;99.90;;;;;;4991021;28;20649;-74
2022/12/23 09:46:28;;;;;;;6.13;2.20;;;13.30;99.90;;;;;;5028128;23;20601;-76
2022/12/23 09:49:14;;;;;;;2.17;1.03;;;13.30;99.90;;;;;;4948773;28;20631;-75
2022/12/23 09:51:40;;;;;;;2.70;1.37;;;13.30;99.90;;;;;;4975115;28;20595;-76
2022/12/23 09:54:11;;;;;;;2.07;1.00;;;13.30;99.90;;;;;;4956032;28;21014;-76
2022/12/23 09:56:50;;;;;;;2.20;1.00;;;13.30;99.90;;;;;;4971875;28;20198;-75
2022/12/23 09:59:24;;;;;;;2.50;0.90;;;13.30;99.90;;;;;;4970351;28;20642;-75
2022/12/23 10:02:16;;;;;;;2.43;1.00;;;13.30;99.90;;;;;;4954425;28;20598;-75
2022/12/23 10:05:25;;;;;;;2.53;1.20;;;13.20;99.90;;;;;;4969163;28;20598;-75
2022/12/23 10:08:00;;;;;;;2.40;0.90;;;13.20;99.90;;;;;;4963226;28;20654;-75
2022/12/23 10:10:34;;;;;;;2.90;1.00;;;13.20;99.90;;;;;;4971452;28;20586;-76
2022/12/23 10:13:02;;;;;;;2.60;1.03;;;13.20;99.90;;;;;;4975212;28;20587;-76
2022/12/23 10:15:40;;;;;;;1.90;1.20;;;13.20;99.90;;;;;;4973736;28;20590;-76
2022/12/23 10:18:26;;;;;;;2.47;0.90;;;13.20;99.90;;;;;;4975770;28;20614;-75
2022/12/23 10:21:06;;;;;;;1.80;1.10;;;13.20;99.90;;;;;;4974088;28;20993;-76
2022/12/23 10:23:42;;;;;;;3.43;1.50;;;13.20;99.90;;;;;;4975965;28;20171;-77
2022/12/23 10:26:15;;;;;;;2.88;1.55;;;13.20;99.90;;;;;;4973572;28;20602;-76
2022/12/23 10:28:40;;;;;;;2.40;0.87;;;13.20;99.90;;;;;;4975561;28;20199;-77
2022/12/23 10:31:16;;;;;;;4.53;2.10;;;13.10;99.90;;;;;;5005752;28;20627;-75
2022/12/23 10:34:00;;;;;;;5.03;1.60;;;13.20;99.90;;;;;;4975778;28;20520;-75
2022/12/23 10:36:39;;;;;;;3.05;1.30;;;13.10;99.90;;;;;;4974785;28;20591;-75
2022/12/23 10:39:07;;;;;;;5.03;1.30;;;13.10;99.90;;;;;;4974490;28;20626;-75
2022/12/23 10:41:49;;;;;;;2.87;1.60;;;13.00;99.90;;;;;;4975272;28;20571;-75
2022/12/23 10:44:34;;;;;;;3.60;1.70;;;13.00;99.90;;;;;;4975103;28;20591;-75
2022/12/23 10:47:18;;;;;;;3.43;1.50;;;12.90;99.90;;;;;;4974095;28;20629;-75
2022/12/23 10:50:22;;;;;;;2.67;1.53;;;12.80;99.90;;;;;;4973820;28;20583;-75
2022/12/23 10:52:48;;;;;;;3.50;1.40;;;12.80;99.90;;;;;;4973064;28;20630;-76
2022/12/23 10:55:28;;;;;;;4.10;1.10;;;12.80;99.90;;;;;;4974352;28;20575;-75
2022/12/23 10:58:06;;;;;;;4.27;1.93;;;12.80;99.90;;;;;;4974842;28;20607;-77
2022/12/23 11:00:37;;;;;;;3.38;2.38;;;12.80;99.90;;;;;;4957536;28;20645;-76
2022/12/23 11:03:12;;;;;;;3.00;1.60;;;12.80;99.90;;;;;;4974897;28;20168;-75
2022/12/23 11:05:38;;;;;;;5.40;1.90;;;12.80;99.90;;;;;;4940734;28;20182;-76
2022/12/23 11:08:04;;;;;;;3.23;1.80;;;12.80;99.90;;;;;;4973931;28;20192;-76
2022/12/23 11:10:32;;;;;;;3.60;1.80;;;12.90;99.90;;;;;;4974282;28;20670;-75
2022/12/23 11:12:59;;;;;;;2.63;1.65;;;13.00;99.90;;;;;;4971134;28;20572;-75
2022/12/23 11:15:43;;;;;;;3.78;1.70;;;13.00;99.90;;;;;;4954083;28;20845;-75
2022/12/23 11:18:29;;;;;;;3.90;2.30;;;13.10;99.90;;;;;;4965068;28;20177;-73
2022/12/23 11:21:16;;;;;;;2.40;1.80;;;13.10;99.90;;;;;;4970830;28;20626;-76
2022/12/23 11:24:17;;;;;;;5.20;2.50;;;13.10;99.90;;;;;;4979681;28;20746;-76
2022/12/23 11:27:12;;;;;;;4.00;2.47;;;13.00;99.90;;;;;;4964840;28;20227;-73
2022/12/23 11:29:58;;;;;;;4.10;2.27;;;13.00;99.90;;;;;;4962713;28;20733;-75
2022/12/23 11:35:27;;;;;;;2.73;1.40;;;12.90;99.90;;;;;;5064396;28;20827;-73
2022/12/23 11:38:13;;;;;;;3.38;1.63;;;12.90;99.90;;;;;;5035290;28;20568;-75
2022/12/23 11:41:01;;;;;;;3.88;1.40;;;12.80;99.90;;;;;;5038020;28;20231;-74
2022/12/23 11:43:29;;;;;;;4.10;2.47;;;12.70;99.90;;;;;;5021461;28;20203;-75
2022/12/23 11:46:34;;;;;;;5.28;1.55;;;12.50;99.90;;;;;;5026020;28;20181;-76
2022/12/23 11:49:29;;;;;;;3.72;1.80;;;12.40;99.90;;;;;;4969881;28;20179;-77
2022/12/23 11:52:07;;;;;;;5.43;1.70;;;12.40;99.90;;;;;;4968372;28;20250;-75
2022/12/23 11:54:33;;;;;;;3.40;2.15;;;12.30;99.90;;;;;;5012405;28;20636;-75
2022/12/23 11:57:02;;;;;;;6.07;3.90;;;12.20;99.90;;;;;;5010284;28;20196;-76
2022/12/23 11:59:39;;;;;;;4.97;3.22;;;12.10;99.90;;;;;;5010134;28;20174;-76
2022/12/23 12:02:20;;;;;;;5.18;3.20;;;12.10;99.90;;;;;;5037054;28;20176;-76
2022/12/23 12:04:58;;;;;;;9.88;3.45;;;12.00;99.90;;;;;;4992697;28;20181;-76
2022/12/23 12:07:25;;;;;;;7.55;3.53;;;12.00;99.90;;;;;;5026698;28;20208;-76
2022/12/23 12:09:51;;;;;;;6.15;2.80;;;11.90;99.90;;;;;;5009763;28;20169;-76
2022/12/23 12:12:19;;;;;;;4.22;2.80;;;11.90;99.90;;;;;;5027465;28;20186;-77
2022/12/23 12:14:56;;;;;;;5.25;2.83;;;11.90;99.90;;;;;;5027054;28;20287;-76
2022/12/23 12:17:25;;;;;;;6.18;2.30;;;11.90;99.90;;;;;;5009743;28;20202;-76
2022/12/23 12:20:11;;;;;;;4.53;2.60;;;11.90;99.90;;;;;;5026376;28;20184;-78
2022/12/23 12:22:43;;;;;;;4.40;1.90;;;11.90;99.90;;;;;;4993963;28;20174;-76
2022/12/23 12:25:22;;;;;;;2.70;2.10;;;11.90;99.90;;;;;;5009615;28;20182;-76
2022/12/23 12:28:00;;;;;;;2.78;1.67;;;11.80;99.90;;;;;;5033366;28;20292;-75
2022/12/23 12:30:42;;;;;;;4.68;2.58;;;11.80;99.90;;;;;;5046497;28;20177;-76
2022/12/23 12:33:18;;;;;;;3.08;1.50;;;11.70;99.90;;;;;;5047788;28;20535;-75
2022/12/23 12:35:50;;;;;;;4.57;3.90;;;11.70;99.90;;;;;;5056719;28;20191;-74
2022/12/23 12:38:29;;;;;;;4.35;2.80;;;11.60;99.90;;;;;;5029182;28;20651;-74
2022/12/23 12:41:16;;;;;;;3.17;2.40;;;11.60;99.90;;;;;;5045466;28;20300;-73
2022/12/23 12:44:25;;;;;;;6.25;2.80;;;11.50;99.90;;;;;;5029194;28;20545;-74
2022/12/23 12:47:11;;;;;;;6.00;2.30;;;11.40;99.90;;;;;;5032533;28;20189;-75
2022/12/23 12:49:42;;;;;;;5.45;3.70;;;11.40;99.90;;;;;;5032639;28;20178;-74
2022/12/23 12:52:12;;;;;;;6.40;4.20;;;11.30;99.90;;;;;;5031966;28;20197;-74
2022/12/23 12:54:49;;;;;;;5.10;2.28;;;11.30;99.90;;;;;;5031735;28;20181;-74
2022/12/23 12:57:18;;;;;;;4.15;1.90;;;11.30;99.90;;;;;;5034040;28;20185;-81
2022/12/23 12:59:49;;;;;;;3.25;1.50;;;11.30;99.90;;;;;;5016039;28;20326;-80
2022/12/23 13:02:34;;;;;;;2.67;1.65;;;11.30;99.90;;;;;;5015047;28;20173;-74
2022/12/23 13:05:11;;;;;;;3.30;1.10;;;11.30;99.90;;;;;;5031916;28;20197;-74
2022/12/23 13:07:52;;;;;;;4.25;2.05;;;11.30;99.90;;;;;;5031756;28;20658;-74
2022/12/23 13:10:46;;;;;;;4.70;2.10;;;11.30;99.90;;;;;;5032289;28;20264;-74
2022/12/23 13:13:37;;;;;;;4.93;2.83;;;11.30;99.90;;;;;;5031832;28;20180;-75
2022/12/23 13:16:31;;;;;;;5.75;3.58;;;11.30;99.90;;;;;;5045301;28;20178;-75
2022/12/23 13:19:03;;;;;;;6.22;2.88;;;11.30;99.90;;;;;;5031297;28;20181;-74
2022/12/23 13:21:43;;;;;;;6.78;4.68;;;11.30;99.90;;;;;;5020867;28;20199;-75
2022/12/23 13:24:17;;;;;;;8.10;4.95;;;11.30;99.90;;;;;;5030521;28;20773;-75
2022/12/23 13:27:02;;;;;;;6.28;3.97;;;11.20;99.90;;;;;;5039428;28;20621;-76
2022/12/23 13:29:43;;;;;;;3.75;2.80;;;11.30;99.90;;;;;;5019195;28;20166;-77
2022/12/23 13:32:17;;;;;;;4.13;1.77;;;11.30;99.90;;;;;;5012876;28;20224;-77
2022/12/23 13:35:11;;;;;;;4.63;2.05;;;11.30;99.90;;;;;;5025037;28;20192;-77
2022/12/23 13:38:00;;;;;;;3.20;1.90;;;11.30;99.90;;;;;;5032970;28;20280;-77
2022/12/23 13:40:37;;;;;;;4.15;1.27;;;11.40;99.90;;;;;;5014388;28;20201;-77